sensor_id;sensor_type;location;lat;lon;timestamp;P1;durP1;ratioP1;P2;durP2;ratioP2
5979;SDS011;3016;50.308;8.258;2022-08-25T00:01:24;10.00;;;3.30;;
5979;SDS011;3016;50.308;8.258;2022-08-25T00:04:30;8.40;;;2.90;;
5979;SDS011;3016;50.308;8.258;2022-08-25T00:07:32;10.30;;;3.70;;
5979;SDS011;3016;50.308;8.258;2022-08-25T00:10:38;8.67;;;3.30;;
5979;SDS011;3016;50.308;8.258;2022-08-25T00:13:43;9.20;;;3.73;;
5979;SDS011;3016;50.308;8.258;2022-08-25T00:16:46;9.77;;;3.40;;
5979;SDS011;3016;50.308;8.258;2022-08-25T00:19:47;9.10;;;3.40;;
5979;SDS011;3016;50.308;8.258;2022-08-25T00:22:48;17.37;;;3.80;;
5979;SDS011;3016;50.308;8.258;2022-08-25T00:25:49;9.40;;;3.30;;
5979;SDS011;3016;50.308;8.258;2022-08-25T00:28:49;11.83;;;3.70;;
5979;SDS011;3016;50.308;8.258;2022-08-25T00:31:50;9.67;;;3.40;;
5979;SDS011;3016;50.308;8.258;2022-08-25T00:34:52;9.70;;;2.97;;
5979;SDS011;3016;50.308;8.258;2022-08-25T00:37:53;9.50;;;3.33;;
5979;SDS011;3016;50.308;8.258;2022-08-25T00:40:54;11.10;;;3.30;;
5979;SDS011;3016;50.308;8.258;2022-08-25T00:44:08;13.87;;;4.33;;
5979;SDS011;3016;50.308;8.258;2022-08-25T00:47:11;9.13;;;3.60;;
5979;SDS011;3016;50.308;8.258;2022-08-25T00:50:12;8.90;;;4.30;;
5979;SDS011;3016;50.308;8.258;2022-08-25T00:53:14;7.87;;;2.70;;
5979;SDS011;3016;50.308;8.258;2022-08-25T00:56:15;9.50;;;3.40;;
5979;SDS011;3016;50.308;8.258;2022-08-25T00:59:18;8.33;;;3.37;;
5979;SDS011;3016;50.308;8.258;2022-08-25T01:02:21;9.40;;;4.23;;
5979;SDS011;3016;50.308;8.258;2022-08-25T01:05:22;8.40;;;3.17;;
5979;SDS011;3016;50.308;8.258;2022-08-25T01:08:25;10.60;;;3.80;;
5979;SDS011;3016;50.308;8.258;2022-08-25T01:11:28;10.00;;;4.00;;
5979;SDS011;3016;50.308;8.258;2022-08-25T01:14:28;9.50;;;4.03;;
5979;SDS011;3016;50.308;8.258;2022-08-25T01:17:32;10.50;;;3.73;;
5979;SDS011;3016;50.308;8.258;2022-08-25T01:20:55;11.90;;;3.77;;
5979;SDS011;3016;50.308;8.258;2022-08-25T01:23:58;9.50;;;3.83;;
5979;SDS011;3016;50.308;8.258;2022-08-25T01:27:00;8.60;;;3.63;;
5979;SDS011;3016;50.308;8.258;2022-08-25T01:30:00;8.53;;;3.50;;
5979;SDS011;3016;50.308;8.258;2022-08-25T01:33:05;11.10;;;4.83;;
5979;SDS011;3016;50.308;8.258;2022-08-25T01:36:08;10.33;;;3.50;;
5979;SDS011;3016;50.308;8.258;2022-08-25T01:39:09;9.30;;;3.80;;
5979;SDS011;3016;50.308;8.258;2022-08-25T01:45:17;9.77;;;4.53;;
5979;SDS011;3016;50.308;8.258;2022-08-25T01:48:19;10.50;;;3.90;;
5979;SDS011;3016;50.308;8.258;2022-08-25T01:51:20;8.30;;;3.43;;
5979;SDS011;3016;50.308;8.258;2022-08-25T01:54:24;9.43;;;3.80;;
5979;SDS011;3016;50.308;8.258;2022-08-25T01:57:28;10.70;;;4.27;;
5979;SDS011;3016;50.308;8.258;2022-08-25T02:00:30;9.60;;;4.03;;
5979;SDS011;3016;50.308;8.258;2022-08-25T02:03:31;8.90;;;4.10;;
5979;SDS011;3016;50.308;8.258;2022-08-25T02:06:32;9.23;;;3.80;;
5979;SDS011;3016;50.308;8.258;2022-08-25T02:09:34;9.77;;;4.10;;
5979;SDS011;3016;50.308;8.258;2022-08-25T02:12:35;10.20;;;4.20;;
5979;SDS011;3016;50.308;8.258;2022-08-25T02:15:43;10.20;;;4.70;;
5979;SDS011;3016;50.308;8.258;2022-08-25T02:18:48;13.77;;;4.10;;
5979;SDS011;3016;50.308;8.258;2022-08-25T02:21:49;9.53;;;4.50;;
5979;SDS011;3016;50.308;8.258;2022-08-25T02:24:50;10.53;;;4.70;;
5979;SDS011;3016;50.308;8.258;2022-08-25T02:27:51;10.37;;;4.07;;
5979;SDS011;3016;50.308;8.258;2022-08-25T02:30:52;9.43;;;4.13;;
5979;SDS011;3016;50.308;8.258;2022-08-25T02:33:53;9.87;;;4.10;;
5979;SDS011;3016;50.308;8.258;2022-08-25T02:36:54;10.47;;;4.57;;
5979;SDS011;3016;50.308;8.258;2022-08-25T02:39:54;11.20;;;4.57;;
5979;SDS011;3016;50.308;8.258;2022-08-25T02:42:55;9.70;;;4.40;;
5979;SDS011;3016;50.308;8.258;2022-08-25T02:45:56;11.00;;;4.80;;
5979;SDS011;3016;50.308;8.258;2022-08-25T02:48:58;11.13;;;4.27;;
5979;SDS011;3016;50.308;8.258;2022-08-25T02:51:59;10.60;;;3.80;;
5979;SDS011;3016;50.308;8.258;2022-08-25T02:55:00;12.13;;;4.20;;
5979;SDS011;3016;50.308;8.258;2022-08-25T02:58:03;9.43;;;4.67;;
5979;SDS011;3016;50.308;8.258;2022-08-25T03:01:05;10.90;;;4.93;;
5979;SDS011;3016;50.308;8.258;2022-08-25T03:04:06;9.83;;;4.40;;
5979;SDS011;3016;50.308;8.258;2022-08-25T03:07:07;9.27;;;4.40;;
5979;SDS011;3016;50.308;8.258;2022-08-25T03:10:12;10.00;;;4.63;;
5979;SDS011;3016;50.308;8.258;2022-08-25T03:13:16;11.30;;;4.93;;
5979;SDS011;3016;50.308;8.258;2022-08-25T03:16:18;8.70;;;3.93;;
5979;SDS011;3016;50.308;8.258;2022-08-25T03:19:20;10.03;;;5.00;;
5979;SDS011;3016;50.308;8.258;2022-08-25T03:22:21;10.73;;;4.40;;
5979;SDS011;3016;50.308;8.258;2022-08-25T03:25:21;10.63;;;5.87;;
5979;SDS011;3016;50.308;8.258;2022-08-25T03:28:40;9.73;;;4.50;;
5979;SDS011;3016;50.308;8.258;2022-08-25T03:31:41;10.30;;;4.60;;
5979;SDS011;3016;50.308;8.258;2022-08-25T03:34:43;11.43;;;4.70;;
5979;SDS011;3016;50.308;8.258;2022-08-25T03:37:44;10.23;;;4.70;;
5979;SDS011;3016;50.308;8.258;2022-08-25T03:40:44;12.23;;;4.20;;
5979;SDS011;3016;50.308;8.258;2022-08-25T03:43:45;14.53;;;4.60;;
5979;SDS011;3016;50.308;8.258;2022-08-25T03:46:48;9.73;;;4.30;;
5979;SDS011;3016;50.308;8.258;2022-08-25T03:49:51;10.50;;;4.83;;
5979;SDS011;3016;50.308;8.258;2022-08-25T03:52:52;11.00;;;5.50;;
5979;SDS011;3016;50.308;8.258;2022-08-25T03:55:55;10.87;;;4.87;;
5979;SDS011;3016;50.308;8.258;2022-08-25T03:58:56;10.67;;;4.60;;
5979;SDS011;3016;50.308;8.258;2022-08-25T04:01:57;15.23;;;5.03;;
5979;SDS011;3016;50.308;8.258;2022-08-25T04:04:58;13.83;;;5.20;;
5979;SDS011;3016;50.308;8.258;2022-08-25T04:07:58;9.90;;;4.40;;
5979;SDS011;3016;50.308;8.258;2022-08-25T04:14:30;11.20;;;4.83;;
5979;SDS011;3016;50.308;8.258;2022-08-25T04:17:31;12.13;;;5.20;;
5979;SDS011;3016;50.308;8.258;2022-08-25T04:20:32;12.83;;;5.70;;
5979;SDS011;3016;50.308;8.258;2022-08-25T04:23:33;11.70;;;5.70;;
5979;SDS011;3016;50.308;8.258;2022-08-25T04:26:36;11.70;;;4.77;;
5979;SDS011;3016;50.308;8.258;2022-08-25T04:29:41;11.37;;;5.20;;
5979;SDS011;3016;50.308;8.258;2022-08-25T04:32:41;12.40;;;5.50;;
5979;SDS011;3016;50.308;8.258;2022-08-25T04:35:46;13.10;;;5.57;;
5979;SDS011;3016;50.308;8.258;2022-08-25T04:38:48;11.00;;;5.17;;
5979;SDS011;3016;50.308;8.258;2022-08-25T04:41:49;13.03;;;5.30;;
5979;SDS011;3016;50.308;8.258;2022-08-25T04:44:50;12.80;;;6.00;;
5979;SDS011;3016;50.308;8.258;2022-08-25T04:47:51;11.77;;;5.23;;
5979;SDS011;3016;50.308;8.258;2022-08-25T04:50:51;12.00;;;5.30;;
5979;SDS011;3016;50.308;8.258;2022-08-25T04:53:53;12.90;;;6.23;;
5979;SDS011;3016;50.308;8.258;2022-08-25T04:56:54;10.87;;;5.70;;
5979;SDS011;3016;50.308;8.258;2022-08-25T04:59:55;14.90;;;5.60;;
5979;SDS011;3016;50.308;8.258;2022-08-25T05:02:56;12.53;;;5.40;;
5979;SDS011;3016;50.308;8.258;2022-08-25T05:05:56;13.60;;;6.27;;
5979;SDS011;3016;50.308;8.258;2022-08-25T05:08:57;11.10;;;5.03;;
5979;SDS011;3016;50.308;8.258;2022-08-25T05:12:00;11.27;;;5.93;;
5979;SDS011;3016;50.308;8.258;2022-08-25T05:15:02;12.90;;;5.53;;
5979;SDS011;3016;50.308;8.258;2022-08-25T05:18:24;10.53;;;5.50;;
5979;SDS011;3016;50.308;8.258;2022-08-25T05:21:28;13.70;;;5.90;;
5979;SDS011;3016;50.308;8.258;2022-08-25T05:24:28;12.40;;;5.60;;
5979;SDS011;3016;50.308;8.258;2022-08-25T05:27:29;11.27;;;5.77;;
5979;SDS011;3016;50.308;8.258;2022-08-25T05:30:32;11.50;;;5.30;;
5979;SDS011;3016;50.308;8.258;2022-08-25T05:33:36;13.73;;;6.07;;
5979;SDS011;3016;50.308;8.258;2022-08-25T05:36:39;14.13;;;6.63;;
5979;SDS011;3016;50.308;8.258;2022-08-25T05:39:42;10.53;;;5.77;;
5979;SDS011;3016;50.308;8.258;2022-08-25T05:42:42;11.93;;;5.57;;
5979;SDS011;3016;50.308;8.258;2022-08-25T05:45:43;12.80;;;5.73;;
5979;SDS011;3016;50.308;8.258;2022-08-25T05:48:45;14.00;;;5.67;;
5979;SDS011;3016;50.308;8.258;2022-08-25T05:51:46;16.03;;;6.40;;
5979;SDS011;3016;50.308;8.258;2022-08-25T05:54:47;14.60;;;5.87;;
5979;SDS011;3016;50.308;8.258;2022-08-25T05:57:48;17.13;;;5.60;;
5979;SDS011;3016;50.308;8.258;2022-08-25T06:00:49;11.73;;;5.27;;
5979;SDS011;3016;50.308;8.258;2022-08-25T06:03:50;13.80;;;6.40;;
5979;SDS011;3016;50.308;8.258;2022-08-25T06:06:52;11.50;;;5.47;;
5979;SDS011;3016;50.308;8.258;2022-08-25T06:09:53;12.60;;;5.80;;
5979;SDS011;3016;50.308;8.258;2022-08-25T06:12:54;12.10;;;5.37;;
5979;SDS011;3016;50.308;8.258;2022-08-25T06:15:58;13.40;;;6.60;;
5979;SDS011;3016;50.308;8.258;2022-08-25T06:18:59;14.73;;;6.40;;
5979;SDS011;3016;50.308;8.258;2022-08-25T06:22:00;13.27;;;6.93;;
5979;SDS011;3016;50.308;8.258;2022-08-25T06:25:01;14.93;;;6.00;;
5979;SDS011;3016;50.308;8.258;2022-08-25T06:28:03;11.77;;;5.97;;
5979;SDS011;3016;50.308;8.258;2022-08-25T06:31:04;13.97;;;7.27;;
5979;SDS011;3016;50.308;8.258;2022-08-25T06:34:05;13.33;;;6.20;;
5979;SDS011;3016;50.308;8.258;2022-08-25T06:37:05;15.23;;;6.00;;
5979;SDS011;3016;50.308;8.258;2022-08-25T06:40:06;12.50;;;5.50;;
5979;SDS011;3016;50.308;8.258;2022-08-25T06:43:09;13.50;;;6.13;;
5979;SDS011;3016;50.308;8.258;2022-08-25T06:49:15;11.30;;;5.50;;
5979;SDS011;3016;50.308;8.258;2022-08-25T06:52:16;11.70;;;4.83;;
5979;SDS011;3016;50.308;8.258;2022-08-25T06:55:17;13.80;;;5.30;;
5979;SDS011;3016;50.308;8.258;2022-08-25T06:58:18;13.20;;;5.20;;
5979;SDS011;3016;50.308;8.258;2022-08-25T07:01:20;15.80;;;5.50;;
5979;SDS011;3016;50.308;8.258;2022-08-25T07:04:25;12.83;;;5.53;;
5979;SDS011;3016;50.308;8.258;2022-08-25T07:07:26;14.73;;;5.60;;
5979;SDS011;3016;50.308;8.258;2022-08-25T07:10:27;11.00;;;5.27;;
5979;SDS011;3016;50.308;8.258;2022-08-25T07:13:27;12.83;;;5.10;;
5979;SDS011;3016;50.308;8.258;2022-08-25T07:16:29;12.33;;;5.50;;
5979;SDS011;3016;50.308;8.258;2022-08-25T07:19:30;10.83;;;5.20;;
5979;SDS011;3016;50.308;8.258;2022-08-25T07:22:31;13.07;;;5.87;;
5979;SDS011;3016;50.308;8.258;2022-08-25T07:25:33;14.57;;;6.50;;
5979;SDS011;3016;50.308;8.258;2022-08-25T07:28:34;14.50;;;6.27;;
5979;SDS011;3016;50.308;8.258;2022-08-25T07:31:35;12.87;;;6.30;;
5979;SDS011;3016;50.308;8.258;2022-08-25T07:34:36;12.80;;;6.10;;
5979;SDS011;3016;50.308;8.258;2022-08-25T07:37:55;13.77;;;6.10;;
5979;SDS011;3016;50.308;8.258;2022-08-25T07:41:02;16.60;;;5.97;;
5979;SDS011;3016;50.308;8.258;2022-08-25T07:44:03;16.10;;;6.23;;
5979;SDS011;3016;50.308;8.258;2022-08-25T07:47:05;13.27;;;5.80;;
5979;SDS011;3016;50.308;8.258;2022-08-25T07:50:07;12.10;;;5.47;;
5979;SDS011;3016;50.308;8.258;2022-08-25T07:53:10;12.77;;;5.50;;
5979;SDS011;3016;50.308;8.258;2022-08-25T07:56:13;12.60;;;5.73;;
5979;SDS011;3016;50.308;8.258;2022-08-25T07:59:15;15.03;;;5.87;;
5979;SDS011;3016;50.308;8.258;2022-08-25T08:02:16;15.00;;;7.07;;
5979;SDS011;3016;50.308;8.258;2022-08-25T08:05:17;12.47;;;5.70;;
